Terminal Aerodrome Forecast
Issued by NWS

Home | Current Version | Previous Version | Text Only | Print | Product List | Glossary On
Versions: 1 2 3 4 5 6 7 8 9 10 11 12 13 14 15 16 17 18 19
000
FTUS43 KGRB 211121
TAFRHI
TAF
KRHI 211121Z 2112/2212 VRB03KT P6SM SCT250
     FM211400 19005KT P6SM BKN150
     FM212000 16008KT P6SM SCT050 BKN100
      TEMPO 2122/2202 4SM -TSRA BKN040CB
     FM220200 14006KT 5SM -SHRA VCTS SCT015CB OVC040
     FM220500 14006KT 3SM -SHRA VCTS OVC008CB
     FM220800 13006KT 1 1/2SM -SHRA BR OVC002=

USA.gov is the U.S. government's official web portal to all federal, state and local government web resources and services.